sensor_id;sensor_type;location;lat;lon;timestamp;P1;durP1;ratioP1;P2;durP2;ratioP2
9424;SDS011;17139;52.140;11.636;2024-01-06T00:01:04;0.20;;;0.20;;
9424;SDS011;17139;52.140;11.636;2024-01-06T00:03:31;0.20;;;0.20;;
9424;SDS011;17139;52.140;11.636;2024-01-06T00:05:58;0.20;;;0.20;;
9424;SDS011;17139;52.140;11.636;2024-01-06T00:08:25;0.20;;;0.20;;
9424;SDS011;17139;52.140;11.636;2024-01-06T00:10:52;0.30;;;0.30;;
9424;SDS011;17139;52.140;11.636;2024-01-06T00:13:20;0.28;;;0.28;;
9424;SDS011;17139;52.140;11.636;2024-01-06T00:15:49;0.20;;;0.20;;
9424;SDS011;17139;52.140;11.636;2024-01-06T00:18:15;0.20;;;0.20;;
9424;SDS011;17139;52.140;11.636;2024-01-06T00:20:42;0.20;;;0.20;;
9424;SDS011;17139;52.140;11.636;2024-01-06T00:23:09;0.20;;;0.20;;
9424;SDS011;17139;52.140;11.636;2024-01-06T00:25:36;0.30;;;0.30;;
9424;SDS011;17139;52.140;11.636;2024-01-06T00:28:04;0.20;;;0.20;;
9424;SDS011;17139;52.140;11.636;2024-01-06T00:30:31;0.30;;;0.30;;
9424;SDS011;17139;52.140;11.636;2024-01-06T00:32:59;0.30;;;0.30;;
9424;SDS011;17139;52.140;11.636;2024-01-06T00:35:27;0.30;;;0.30;;
9424;SDS011;17139;52.140;11.636;2024-01-06T00:37:54;0.20;;;0.20;;
9424;SDS011;17139;52.140;11.636;2024-01-06T00:40:21;0.30;;;0.30;;
9424;SDS011;17139;52.140;11.636;2024-01-06T00:42:48;0.20;;;0.20;;
9424;SDS011;17139;52.140;11.636;2024-01-06T00:45:15;0.30;;;0.30;;
9424;SDS011;17139;52.140;11.636;2024-01-06T00:47:43;0.20;;;0.20;;
9424;SDS011;17139;52.140;11.636;2024-01-06T00:50:11;0.20;;;0.20;;
9424;SDS011;17139;52.140;11.636;2024-01-06T00:52:38;0.30;;;0.30;;
9424;SDS011;17139;52.140;11.636;2024-01-06T00:55:06;0.20;;;0.20;;
9424;SDS011;17139;52.140;11.636;2024-01-06T00:57:33;0.20;;;0.20;;
9424;SDS011;17139;52.140;11.636;2024-01-06T01:00:00;0.30;;;0.30;;
9424;SDS011;17139;52.140;11.636;2024-01-06T01:02:27;0.20;;;0.20;;
9424;SDS011;17139;52.140;11.636;2024-01-06T01:04:54;0.20;;;0.20;;
9424;SDS011;17139;52.140;11.636;2024-01-06T01:07:23;0.20;;;0.20;;
9424;SDS011;17139;52.140;11.636;2024-01-06T01:09:52;0.20;;;0.20;;
9424;SDS011;17139;52.140;11.636;2024-01-06T01:12:19;0.20;;;0.20;;
9424;SDS011;17139;52.140;11.636;2024-01-06T01:14:46;0.20;;;0.20;;
9424;SDS011;17139;52.140;11.636;2024-01-06T01:17:13;0.30;;;0.30;;
9424;SDS011;17139;52.140;11.636;2024-01-06T01:19:40;0.20;;;0.20;;
9424;SDS011;17139;52.140;11.636;2024-01-06T01:22:07;0.30;;;0.30;;
9424;SDS011;17139;52.140;11.636;2024-01-06T01:24:36;0.20;;;0.20;;
9424;SDS011;17139;52.140;11.636;2024-01-06T01:27:03;0.20;;;0.20;;
9424;SDS011;17139;52.140;11.636;2024-01-06T01:29:30;0.27;;;0.27;;
9424;SDS011;17139;52.140;11.636;2024-01-06T01:31:57;0.30;;;0.30;;
9424;SDS011;17139;52.140;11.636;2024-01-06T01:34:24;0.20;;;0.20;;
9424;SDS011;17139;52.140;11.636;2024-01-06T01:36:51;0.30;;;0.30;;
9424;SDS011;17139;52.140;11.636;2024-01-06T01:39:18;0.20;;;0.20;;
9424;SDS011;17139;52.140;11.636;2024-01-06T01:41:47;0.17;;;0.17;;
9424;SDS011;17139;52.140;11.636;2024-01-06T01:44:15;0.30;;;0.30;;
9424;SDS011;17139;52.140;11.636;2024-01-06T01:46:42;0.30;;;0.30;;
9424;SDS011;17139;52.140;11.636;2024-01-06T01:49:09;0.20;;;0.20;;
9424;SDS011;17139;52.140;11.636;2024-01-06T01:51:36;0.20;;;0.20;;
9424;SDS011;17139;52.140;11.636;2024-01-06T01:54:03;0.30;;;0.30;;
9424;SDS011;17139;52.140;11.636;2024-01-06T01:56:32;0.30;;;0.30;;
9424;SDS011;17139;52.140;11.636;2024-01-06T01:59:02;0.40;;;0.40;;
9424;SDS011;17139;52.140;11.636;2024-01-06T02:01:32;0.30;;;0.30;;
9424;SDS011;17139;52.140;11.636;2024-01-06T02:03:59;0.30;;;0.30;;
9424;SDS011;17139;52.140;11.636;2024-01-06T02:06:26;0.20;;;0.20;;
9424;SDS011;17139;52.140;11.636;2024-01-06T02:08:53;0.30;;;0.30;;
9424;SDS011;17139;52.140;11.636;2024-01-06T02:11:21;0.20;;;0.20;;
9424;SDS011;17139;52.140;11.636;2024-01-06T02:13:49;0.30;;;0.30;;
9424;SDS011;17139;52.140;11.636;2024-01-06T02:16:17;0.20;;;0.20;;
9424;SDS011;17139;52.140;11.636;2024-01-06T02:18:44;0.20;;;0.20;;
9424;SDS011;17139;52.140;11.636;2024-01-06T02:21:12;0.20;;;0.20;;
9424;SDS011;17139;52.140;11.636;2024-01-06T02:23:42;0.20;;;0.20;;
9424;SDS011;17139;52.140;11.636;2024-01-06T02:26:09;0.20;;;0.20;;
9424;SDS011;17139;52.140;11.636;2024-01-06T02:28:38;0.20;;;0.20;;
9424;SDS011;17139;52.140;11.636;2024-01-06T02:31:05;0.20;;;0.20;;
9424;SDS011;17139;52.140;11.636;2024-01-06T02:33:32;0.30;;;0.30;;
9424;SDS011;17139;52.140;11.636;2024-01-06T02:35:59;0.30;;;0.30;;
9424;SDS011;17139;52.140;11.636;2024-01-06T02:38:26;0.20;;;0.20;;
9424;SDS011;17139;52.140;11.636;2024-01-06T02:40:54;0.20;;;0.20;;
9424;SDS011;17139;52.140;11.636;2024-01-06T02:43:22;0.30;;;0.30;;
9424;SDS011;17139;52.140;11.636;2024-01-06T02:45:49;0.30;;;0.30;;
9424;SDS011;17139;52.140;11.636;2024-01-06T02:48:16;0.30;;;0.30;;
9424;SDS011;17139;52.140;11.636;2024-01-06T02:50:43;0.20;;;0.20;;
9424;SDS011;17139;52.140;11.636;2024-01-06T02:53:10;0.20;;;0.20;;
9424;SDS011;17139;52.140;11.636;2024-01-06T02:55:38;0.30;;;0.30;;
9424;SDS011;17139;52.140;11.636;2024-01-06T02:58:06;0.20;;;0.20;;
9424;SDS011;17139;52.140;11.636;2024-01-06T03:00:33;0.20;;;0.20;;
9424;SDS011;17139;52.140;11.636;2024-01-06T03:03:00;0.30;;;0.30;;
9424;SDS011;17139;52.140;11.636;2024-01-06T03:05:27;0.20;;;0.20;;
9424;SDS011;17139;52.140;11.636;2024-01-06T03:07:54;0.43;;;0.43;;
9424;SDS011;17139;52.140;11.636;2024-01-06T03:10:21;0.30;;;0.30;;
9424;SDS011;17139;52.140;11.636;2024-01-06T03:12:48;0.20;;;0.20;;
9424;SDS011;17139;52.140;11.636;2024-01-06T03:15:17;0.20;;;0.20;;
9424;SDS011;17139;52.140;11.636;2024-01-06T03:17:44;0.20;;;0.20;;
9424;SDS011;17139;52.140;11.636;2024-01-06T03:20:10;0.20;;;0.20;;
9424;SDS011;17139;52.140;11.636;2024-01-06T03:22:38;0.20;;;0.20;;
9424;SDS011;17139;52.140;11.636;2024-01-06T03:25:05;0.47;;;0.47;;
9424;SDS011;17139;52.140;11.636;2024-01-06T03:27:32;0.23;;;0.23;;
9424;SDS011;17139;52.140;11.636;2024-01-06T03:29:59;0.20;;;0.20;;
9424;SDS011;17139;52.140;11.636;2024-01-06T03:32:28;0.30;;;0.30;;
9424;SDS011;17139;52.140;11.636;2024-01-06T03:34:55;0.30;;;0.30;;
9424;SDS011;17139;52.140;11.636;2024-01-06T03:37:21;0.20;;;0.20;;
9424;SDS011;17139;52.140;11.636;2024-01-06T03:39:49;0.20;;;0.20;;
9424;SDS011;17139;52.140;11.636;2024-01-06T03:42:16;0.30;;;0.30;;
9424;SDS011;17139;52.140;11.636;2024-01-06T03:44:43;0.20;;;0.20;;
9424;SDS011;17139;52.140;11.636;2024-01-06T03:47:10;0.20;;;0.20;;
9424;SDS011;17139;52.140;11.636;2024-01-06T03:49:38;0.20;;;0.20;;
9424;SDS011;17139;52.140;11.636;2024-01-06T03:52:05;0.20;;;0.20;;
9424;SDS011;17139;52.140;11.636;2024-01-06T03:54:32;0.20;;;0.20;;
9424;SDS011;17139;52.140;11.636;2024-01-06T03:57:00;0.30;;;0.30;;
9424;SDS011;17139;52.140;11.636;2024-01-06T03:59:27;0.20;;;0.20;;
9424;SDS011;17139;52.140;11.636;2024-01-06T04:01:54;0.30;;;0.30;;
9424;SDS011;17139;52.140;11.636;2024-01-06T04:04:21;0.30;;;0.30;;
9424;SDS011;17139;52.140;11.636;2024-01-06T04:06:49;0.30;;;0.30;;
9424;SDS011;17139;52.140;11.636;2024-01-06T04:09:16;0.20;;;0.20;;
9424;SDS011;17139;52.140;11.636;2024-01-06T04:11:43;0.27;;;0.27;;
9424;SDS011;17139;52.140;11.636;2024-01-06T04:14:10;0.20;;;0.20;;
9424;SDS011;17139;52.140;11.636;2024-01-06T04:16:37;0.30;;;0.30;;
9424;SDS011;17139;52.140;11.636;2024-01-06T04:19:05;0.23;;;0.23;;
9424;SDS011;17139;52.140;11.636;2024-01-06T04:21:32;0.20;;;0.20;;
9424;SDS011;17139;52.140;11.636;2024-01-06T04:24:00;0.30;;;0.30;;
9424;SDS011;17139;52.140;11.636;2024-01-06T04:26:30;0.30;;;0.30;;
9424;SDS011;17139;52.140;11.636;2024-01-06T04:28:57;0.25;;;0.25;;
9424;SDS011;17139;52.140;11.636;2024-01-06T04:31:24;0.30;;;0.30;;
9424;SDS011;17139;52.140;11.636;2024-01-06T04:33:51;0.30;;;0.30;;
9424;SDS011;17139;52.140;11.636;2024-01-06T04:36:18;0.30;;;0.30;;
9424;SDS011;17139;52.140;11.636;2024-01-06T04:38:45;0.20;;;0.20;;
9424;SDS011;17139;52.140;11.636;2024-01-06T04:41:13;0.30;;;0.30;;
9424;SDS011;17139;52.140;11.636;2024-01-06T04:43:40;0.20;;;0.20;;
9424;SDS011;17139;52.140;11.636;2024-01-06T04:46:08;0.30;;;0.30;;
9424;SDS011;17139;52.140;11.636;2024-01-06T04:48:35;0.30;;;0.30;;
9424;SDS011;17139;52.140;11.636;2024-01-06T04:51:02;0.20;;;0.20;;
9424;SDS011;17139;52.140;11.636;2024-01-06T04:53:29;0.20;;;0.20;;
9424;SDS011;17139;52.140;11.636;2024-01-06T04:55:56;0.20;;;0.20;;
9424;SDS011;17139;52.140;11.636;2024-01-06T04:58:24;0.30;;;0.30;;
9424;SDS011;17139;52.140;11.636;2024-01-06T05:00:51;0.20;;;0.20;;
9424;SDS011;17139;52.140;11.636;2024-01-06T05:03:19;0.20;;;0.20;;
9424;SDS011;17139;52.140;11.636;2024-01-06T05:05:45;0.20;;;0.20;;
9424;SDS011;17139;52.140;11.636;2024-01-06T05:08:12;0.20;;;0.20;;
9424;SDS011;17139;52.140;11.636;2024-01-06T05:10:39;0.20;;;0.20;;
9424;SDS011;17139;52.140;11.636;2024-01-06T05:13:07;0.20;;;0.20;;
9424;SDS011;17139;52.140;11.636;2024-01-06T05:15:35;0.30;;;0.30;;
9424;SDS011;17139;52.140;11.636;2024-01-06T05:18:02;0.20;;;0.20;;
9424;SDS011;17139;52.140;11.636;2024-01-06T05:20:29;0.20;;;0.20;;
9424;SDS011;17139;52.140;11.636;2024-01-06T05:22:56;0.20;;;0.20;;
9424;SDS011;17139;52.140;11.636;2024-01-06T05:25:23;0.30;;;0.30;;
9424;SDS011;17139;52.140;11.636;2024-01-06T05:27:51;0.30;;;0.30;;
9424;SDS011;17139;52.140;11.636;2024-01-06T05:30:18;0.20;;;0.20;;
9424;SDS011;17139;52.140;11.636;2024-01-06T05:32:46;0.20;;;0.20;;
9424;SDS011;17139;52.140;11.636;2024-01-06T05:35:15;0.30;;;0.30;;
9424;SDS011;17139;52.140;11.636;2024-01-06T05:37:42;0.30;;;0.30;;
9424;SDS011;17139;52.140;11.636;2024-01-06T05:40:09;0.20;;;0.20;;
9424;SDS011;17139;52.140;11.636;2024-01-06T05:42:36;0.30;;;0.30;;
9424;SDS011;17139;52.140;11.636;2024-01-06T05:45:04;0.43;;;0.43;;
9424;SDS011;17139;52.140;11.636;2024-01-06T05:47:31;0.30;;;0.30;;
9424;SDS011;17139;52.140;11.636;2024-01-06T05:50:00;0.20;;;0.20;;
9424;SDS011;17139;52.140;11.636;2024-01-06T05:52:27;0.30;;;0.30;;
9424;SDS011;17139;52.140;11.636;2024-01-06T05:54:54;0.20;;;0.20;;
9424;SDS011;17139;52.140;11.636;2024-01-06T05:57:21;0.20;;;0.20;;
9424;SDS011;17139;52.140;11.636;2024-01-06T05:59:48;0.30;;;0.30;;
9424;SDS011;17139;52.140;11.636;2024-01-06T06:02:15;0.20;;;0.20;;
9424;SDS011;17139;52.140;11.636;2024-01-06T06:04:42;0.20;;;0.20;;
9424;SDS011;17139;52.140;11.636;2024-01-06T06:07:10;0.27;;;0.27;;
9424;SDS011;17139;52.140;11.636;2024-01-06T06:09:37;0.20;;;0.20;;
9424;SDS011;17139;52.140;11.636;2024-01-06T06:12:05;0.20;;;0.20;;
9424;SDS011;17139;52.140;11.636;2024-01-06T06:14:33;0.30;;;0.30;;
9424;SDS011;17139;52.140;11.636;2024-01-06T06:17:00;0.20;;;0.20;;
9424;SDS011;17139;52.140;11.636;2024-01-06T06:19:27;0.20;;;0.20;;
9424;SDS011;17139;52.140;11.636;2024-01-06T06:21:54;0.20;;;0.20;;
9424;SDS011;17139;52.140;11.636;2024-01-06T06:24:22;0.20;;;0.20;;
9424;SDS011;17139;52.140;11.636;2024-01-06T06:26:49;0.20;;;0.20;;
9424;SDS011;17139;52.140;11.636;2024-01-06T06:29:16;0.30;;;0.30;;
9424;SDS011;17139;52.140;11.636;2024-01-06T06:31:45;0.20;;;0.20;;
9424;SDS011;17139;52.140;11.636;2024-01-06T06:34:13;0.25;;;0.25;;
9424;SDS011;17139;52.140;11.636;2024-01-06T06:36:40;0.20;;;0.20;;
9424;SDS011;17139;52.140;11.636;2024-01-06T06:39:07;0.23;;;0.23;;
9424;SDS011;17139;52.140;11.636;2024-01-06T06:41:37;0.23;;;0.23;;
9424;SDS011;17139;52.140;11.636;2024-01-06T06:44:04;0.30;;;0.30;;
9424;SDS011;17139;52.140;11.636;2024-01-06T06:46:31;0.30;;;0.30;;
9424;SDS011;17139;52.140;11.636;2024-01-06T06:48:58;0.20;;;0.20;;
9424;SDS011;17139;52.140;11.636;2024-01-06T06:51:25;0.20;;;0.20;;
9424;SDS011;17139;52.140;11.636;2024-01-06T06:53:52;0.30;;;0.30;;
9424;SDS011;17139;52.140;11.636;2024-01-06T06:56:19;0.20;;;0.20;;
9424;SDS011;17139;52.140;11.636;2024-01-06T06:58:47;0.20;;;0.20;;
9424;SDS011;17139;52.140;11.636;2024-01-06T07:01:15;0.23;;;0.23;;
9424;SDS011;17139;52.140;11.636;2024-01-06T07:03:42;0.30;;;0.30;;
9424;SDS011;17139;52.140;11.636;2024-01-06T07:06:11;0.30;;;0.30;;
9424;SDS011;17139;52.140;11.636;2024-01-06T07:08:38;0.20;;;0.20;;
9424;SDS011;17139;52.140;11.636;2024-01-06T07:11:07;28.23;;;18.25;;
9424;SDS011;17139;52.140;11.636;2024-01-06T07:13:34;18.30;;;10.97;;
9424;SDS011;17139;52.140;11.636;2024-01-06T07:16:02;14.20;;;10.17;;
9424;SDS011;17139;52.140;11.636;2024-01-06T07:18:31;34.72;;;20.67;;
9424;SDS011;17139;52.140;11.636;2024-01-06T07:20:58;21.57;;;14.20;;
9424;SDS011;17139;52.140;11.636;2024-01-06T07:23:25;19.43;;;12.43;;
9424;SDS011;17139;52.140;11.636;2024-01-06T07:25:52;24.07;;;10.20;;
9424;SDS011;17139;52.140;11.636;2024-01-06T07:28:21;20.90;;;11.97;;
9424;SDS011;17139;52.140;11.636;2024-01-06T07:30:48;18.27;;;11.77;;
9424;SDS011;17139;52.140;11.636;2024-01-06T07:33:16;17.30;;;11.97;;
9424;SDS011;17139;52.140;11.636;2024-01-06T07:35:43;12.67;;;9.50;;
9424;SDS011;17139;52.140;11.636;2024-01-06T07:38:13;18.63;;;12.50;;
9424;SDS011;17139;52.140;11.636;2024-01-06T07:40:40;14.83;;;9.67;;
9424;SDS011;17139;52.140;11.636;2024-01-06T07:43:09;14.77;;;9.43;;
9424;SDS011;17139;52.140;11.636;2024-01-06T07:45:36;16.10;;;11.33;;
9424;SDS011;17139;52.140;11.636;2024-01-06T07:48:04;23.30;;;13.07;;
9424;SDS011;17139;52.140;11.636;2024-01-06T07:50:33;18.73;;;12.18;;
9424;SDS011;17139;52.140;11.636;2024-01-06T07:53:00;37.08;;;21.48;;
9424;SDS011;17139;52.140;11.636;2024-01-06T07:55:27;23.53;;;12.93;;
9424;SDS011;17139;52.140;11.636;2024-01-06T07:57:54;6.40;;;5.77;;
9424;SDS011;17139;52.140;11.636;2024-01-06T08:00:21;22.83;;;13.60;;
9424;SDS011;17139;52.140;11.636;2024-01-06T08:02:48;24.90;;;12.37;;
9424;SDS011;17139;52.140;11.636;2024-01-06T08:05:15;18.07;;;10.37;;
9424;SDS011;17139;52.140;11.636;2024-01-06T08:07:43;17.23;;;11.27;;
9424;SDS011;17139;52.140;11.636;2024-01-06T08:10:10;18.60;;;10.87;;
9424;SDS011;17139;52.140;11.636;2024-01-06T08:12:37;30.90;;;15.23;;
9424;SDS011;17139;52.140;11.636;2024-01-06T08:15:05;19.03;;;11.80;;
9424;SDS011;17139;52.140;11.636;2024-01-06T08:17:33;24.67;;;14.33;;
9424;SDS011;17139;52.140;11.636;2024-01-06T08:20:00;35.90;;;12.10;;
9424;SDS011;17139;52.140;11.636;2024-01-06T08:22:28;13.93;;;8.67;;
9424;SDS011;17139;52.140;11.636;2024-01-06T08:24:56;23.67;;;13.40;;
9424;SDS011;17139;52.140;11.636;2024-01-06T08:27:23;19.53;;;10.47;;
9424;SDS011;17139;52.140;11.636;2024-01-06T08:29:50;21.63;;;12.83;;
9424;SDS011;17139;52.140;11.636;2024-01-06T08:32:17;38.33;;;20.15;;
9424;SDS011;17139;52.140;11.636;2024-01-06T08:34:44;20.93;;;13.70;;
9424;SDS011;17139;52.140;11.636;2024-01-06T08:37:12;21.37;;;12.30;;
9424;SDS011;17139;52.140;11.636;2024-01-06T08:39:39;43.30;;;22.20;;
9424;SDS011;17139;52.140;11.636;2024-01-06T08:42:07;29.83;;;14.87;;
9424;SDS011;17139;52.140;11.636;2024-01-06T08:44:34;24.70;;;13.63;;
9424;SDS011;17139;52.140;11.636;2024-01-06T08:47:01;13.80;;;9.07;;
9424;SDS011;17139;52.140;11.636;2024-01-06T08:49:29;17.90;;;10.73;;
9424;SDS011;17139;52.140;11.636;2024-01-06T08:51:57;22.33;;;12.47;;
9424;SDS011;17139;52.140;11.636;2024-01-06T08:54:24;15.57;;;8.97;;
9424;SDS011;17139;52.140;11.636;2024-01-06T08:56:51;17.67;;;12.03;;
9424;SDS011;17139;52.140;11.636;2024-01-06T08:59:19;22.10;;;11.20;;
9424;SDS011;17139;52.140;11.636;2024-01-06T09:01:46;33.63;;;12.23;;
9424;SDS011;17139;52.140;11.636;2024-01-06T09:04:13;18.73;;;10.13;;
9424;SDS011;17139;52.140;11.636;2024-01-06T09:06:40;21.50;;;11.43;;
9424;SDS011;17139;52.140;11.636;2024-01-06T09:09:08;38.65;;;20.90;;
9424;SDS011;17139;52.140;11.636;2024-01-06T09:11:35;27.83;;;14.80;;
9424;SDS011;17139;52.140;11.636;2024-01-06T09:14:02;26.67;;;14.37;;
9424;SDS011;17139;52.140;11.636;2024-01-06T09:16:30;35.35;;;19.63;;
9424;SDS011;17139;52.140;11.636;2024-01-06T09:18:57;30.33;;;15.73;;
9424;SDS011;17139;52.140;11.636;2024-01-06T09:21:24;32.57;;;16.63;;
9424;SDS011;17139;52.140;11.636;2024-01-06T09:23:51;24.20;;;14.33;;
9424;SDS011;17139;52.140;11.636;2024-01-06T09:26:18;23.87;;;13.03;;
9424;SDS011;17139;52.140;11.636;2024-01-06T09:28:45;18.17;;;11.27;;
9424;SDS011;17139;52.140;11.636;2024-01-06T09:31:13;20.20;;;12.83;;
9424;SDS011;17139;52.140;11.636;2024-01-06T09:33:41;21.20;;;12.03;;
9424;SDS011;17139;52.140;11.636;2024-01-06T09:36:08;22.97;;;13.20;;
9424;SDS011;17139;52.140;11.636;2024-01-06T09:38:37;21.40;;;12.93;;
9424;SDS011;17139;52.140;11.636;2024-01-06T09:41:04;21.23;;;14.70;;
9424;SDS011;17139;52.140;11.636;2024-01-06T09:43:31;25.03;;;14.13;;
9424;SDS011;17139;52.140;11.636;2024-01-06T09:46:01;24.90;;;13.37;;
9424;SDS011;17139;52.140;11.636;2024-01-06T09:48:33;27.53;;;14.53;;
9424;SDS011;17139;52.140;11.636;2024-01-06T09:51:08;45.45;;;23.42;;
9424;SDS011;17139;52.140;11.636;2024-01-06T09:53:39;28.97;;;16.13;;
9424;SDS011;17139;52.140;11.636;2024-01-06T09:56:14;31.27;;;17.10;;
9424;SDS011;17139;52.140;11.636;2024-01-06T09:58:42;25.17;;;14.97;;
9424;SDS011;17139;52.140;11.636;2024-01-06T10:01:10;15.20;;;10.37;;
9424;SDS011;17139;52.140;11.636;2024-01-06T10:03:39;18.63;;;11.00;;
9424;SDS011;17139;52.140;11.636;2024-01-06T10:06:08;19.40;;;12.13;;
9424;SDS011;17139;52.140;11.636;2024-01-06T10:08:35;24.67;;;13.37;;
9424;SDS011;17139;52.140;11.636;2024-01-06T10:11:02;47.17;;;22.88;;
9424;SDS011;17139;52.140;11.636;2024-01-06T10:13:29;22.23;;;12.40;;
9424;SDS011;17139;52.140;11.636;2024-01-06T10:15:56;54.63;;;25.73;;
9424;SDS011;17139;52.140;11.636;2024-01-06T10:18:24;39.47;;;19.30;;
9424;SDS011;17139;52.140;11.636;2024-01-06T10:20:54;66.15;;;26.98;;
9424;SDS011;17139;52.140;11.636;2024-01-06T10:23:23;35.40;;;16.83;;
9424;SDS011;17139;52.140;11.636;2024-01-06T10:25:51;33.43;;;15.77;;
9424;SDS011;17139;52.140;11.636;2024-01-06T10:28:20;49.53;;;22.00;;
9424;SDS011;17139;52.140;11.636;2024-01-06T10:30:48;27.17;;;13.57;;
9424;SDS011;17139;52.140;11.636;2024-01-06T10:33:18;34.33;;;14.83;;
9424;SDS011;17139;52.140;11.636;2024-01-06T10:35:45;23.13;;;11.60;;
9424;SDS011;17139;52.140;11.636;2024-01-06T10:38:13;37.73;;;16.07;;
9424;SDS011;17139;52.140;11.636;2024-01-06T10:40:49;33.03;;;14.67;;
9424;SDS011;17139;52.140;11.636;2024-01-06T10:43:22;24.10;;;12.10;;
9424;SDS011;17139;52.140;11.636;2024-01-06T10:45:51;35.67;;;18.63;;
9424;SDS011;17139;52.140;11.636;2024-01-06T10:48:22;26.73;;;16.37;;
9424;SDS011;17139;52.140;11.636;2024-01-06T10:50:51;24.10;;;12.33;;
9424;SDS011;17139;52.140;11.636;2024-01-06T10:53:20;24.20;;;14.43;;
9424;SDS011;17139;52.140;11.636;2024-01-06T10:55:50;23.53;;;11.23;;
9424;SDS011;17139;52.140;11.636;2024-01-06T10:58:19;28.97;;;15.07;;
9424;SDS011;17139;52.140;11.636;2024-01-06T11:00:47;43.35;;;20.85;;
9424;SDS011;17139;52.140;11.636;2024-01-06T11:03:14;21.53;;;12.70;;
9424;SDS011;17139;52.140;11.636;2024-01-06T11:05:41;27.13;;;14.23;;
9424;SDS011;17139;52.140;11.636;2024-01-06T11:08:08;29.13;;;14.63;;
9424;SDS011;17139;52.140;11.636;2024-01-06T11:10:36;27.40;;;13.17;;
9424;SDS011;17139;52.140;11.636;2024-01-06T11:13:10;34.20;;;17.73;;
9424;SDS011;17139;52.140;11.636;2024-01-06T11:15:38;25.47;;;14.10;;
9424;SDS011;17139;52.140;11.636;2024-01-06T11:18:06;27.20;;;15.53;;
9424;SDS011;17139;52.140;11.636;2024-01-06T11:20:33;29.07;;;14.10;;
9424;SDS011;17139;52.140;11.636;2024-01-06T11:25:44;23.77;;;14.10;;
9424;SDS011;17139;52.140;11.636;2024-01-06T11:28:12;39.63;;;21.08;;
9424;SDS011;17139;52.140;11.636;2024-01-06T11:30:39;54.75;;;28.17;;
9424;SDS011;17139;52.140;11.636;2024-01-06T11:33:06;30.20;;;14.53;;
9424;SDS011;17139;52.140;11.636;2024-01-06T11:35:36;42.67;;;16.73;;
9424;SDS011;17139;52.140;11.636;2024-01-06T11:38:06;38.55;;;20.52;;
9424;SDS011;17139;52.140;11.636;2024-01-06T11:40:33;17.80;;;11.93;;
9424;SDS011;17139;52.140;11.636;2024-01-06T11:43:02;15.60;;;9.77;;
9424;SDS011;17139;52.140;11.636;2024-01-06T11:45:32;21.13;;;11.33;;
9424;SDS011;17139;52.140;11.636;2024-01-06T11:48:00;17.53;;;7.97;;
9424;SDS011;17139;52.140;11.636;2024-01-06T11:50:29;24.57;;;13.73;;
9424;SDS011;17139;52.140;11.636;2024-01-06T11:52:56;31.80;;;16.53;;
9424;SDS011;17139;52.140;11.636;2024-01-06T11:55:24;31.93;;;15.23;;
9424;SDS011;17139;52.140;11.636;2024-01-06T11:57:54;26.87;;;14.17;;
9424;SDS011;17139;52.140;11.636;2024-01-06T12:00:22;17.67;;;10.10;;
9424;SDS011;17139;52.140;11.636;2024-01-06T12:02:51;26.33;;;13.03;;
9424;SDS011;17139;52.140;11.636;2024-01-06T12:05:22;24.83;;;10.70;;
9424;SDS011;17139;52.140;11.636;2024-01-06T12:07:53;45.70;;;22.77;;
9424;SDS011;17139;52.140;11.636;2024-01-06T12:10:21;27.43;;;14.17;;
9424;SDS011;17139;52.140;11.636;2024-01-06T12:12:54;33.40;;;18.10;;
9424;SDS011;17139;52.140;11.636;2024-01-06T12:15:25;19.93;;;12.23;;
9424;SDS011;17139;52.140;11.636;2024-01-06T12:17:53;30.83;;;16.10;;
9424;SDS011;17139;52.140;11.636;2024-01-06T12:20:21;47.93;;;24.73;;
9424;SDS011;17139;52.140;11.636;2024-01-06T12:22:48;49.28;;;25.13;;
9424;SDS011;17139;52.140;11.636;2024-01-06T12:25:17;39.50;;;19.37;;
9424;SDS011;17139;52.140;11.636;2024-01-06T12:27:44;40.50;;;19.40;;
9424;SDS011;17139;52.140;11.636;2024-01-06T12:30:12;35.75;;;18.15;;
9424;SDS011;17139;52.140;11.636;2024-01-06T12:32:42;33.50;;;15.57;;
9424;SDS011;17139;52.140;11.636;2024-01-06T12:35:12;25.87;;;13.63;;
9424;SDS011;17139;52.140;11.636;2024-01-06T12:37:39;50.67;;;25.40;;
9424;SDS011;17139;52.140;11.636;2024-01-06T12:40:08;32.95;;;16.92;;
9424;SDS011;17139;52.140;11.636;2024-01-06T12:42:36;33.00;;;17.92;;
9424;SDS011;17139;52.140;11.636;2024-01-06T12:45:04;51.42;;;26.95;;
9424;SDS011;17139;52.140;11.636;2024-01-06T12:47:32;44.40;;;24.50;;
9424;SDS011;17139;52.140;11.636;2024-01-06T12:50:00;30.37;;;17.53;;
9424;SDS011;17139;52.140;11.636;2024-01-06T12:52:30;27.10;;;14.53;;
9424;SDS011;17139;52.140;11.636;2024-01-06T12:54:58;18.23;;;9.60;;
9424;SDS011;17139;52.140;11.636;2024-01-06T12:57:28;34.03;;;15.83;;
9424;SDS011;17139;52.140;11.636;2024-01-06T12:59:55;30.23;;;17.87;;
9424;SDS011;17139;52.140;11.636;2024-01-06T13:02:22;23.63;;;12.80;;
9424;SDS011;17139;52.140;11.636;2024-01-06T13:04:49;24.07;;;13.20;;
9424;SDS011;17139;52.140;11.636;2024-01-06T13:07:16;31.13;;;17.40;;
9424;SDS011;17139;52.140;11.636;2024-01-06T13:09:45;57.70;;;28.33;;
9424;SDS011;17139;52.140;11.636;2024-01-06T13:12:12;30.23;;;16.13;;
9424;SDS011;17139;52.140;11.636;2024-01-06T13:14:39;51.58;;;26.73;;
9424;SDS011;17139;52.140;11.636;2024-01-06T13:17:09;41.33;;;18.10;;
9424;SDS011;17139;52.140;11.636;2024-01-06T13:19:36;36.90;;;18.00;;
9424;SDS011;17139;52.140;11.636;2024-01-06T13:22:03;22.10;;;11.40;;
9424;SDS011;17139;52.140;11.636;2024-01-06T13:24:30;19.70;;;11.87;;
9424;SDS011;17139;52.140;11.636;2024-01-06T13:26:58;30.30;;;12.27;;
9424;SDS011;17139;52.140;11.636;2024-01-06T13:29:27;28.47;;;14.70;;
9424;SDS011;17139;52.140;11.636;2024-01-06T13:31:54;13.63;;;10.33;;
9424;SDS011;17139;52.140;11.636;2024-01-06T13:34:22;30.13;;;14.47;;
9424;SDS011;17139;52.140;11.636;2024-01-06T13:36:49;22.20;;;12.57;;
9424;SDS011;17139;52.140;11.636;2024-01-06T13:39:16;32.37;;;16.27;;
9424;SDS011;17139;52.140;11.636;2024-01-06T13:41:45;58.95;;;30.20;;
9424;SDS011;17139;52.140;11.636;2024-01-06T13:44:14;33.63;;;21.00;;
9424;SDS011;17139;52.140;11.636;2024-01-06T13:46:41;37.50;;;18.53;;
9424;SDS011;17139;52.140;11.636;2024-01-06T13:49:10;40.50;;;17.70;;
9424;SDS011;17139;52.140;11.636;2024-01-06T13:51:37;27.77;;;14.57;;
9424;SDS011;17139;52.140;11.636;2024-01-06T13:54:04;31.60;;;9.63;;
9424;SDS011;17139;52.140;11.636;2024-01-06T13:56:35;29.50;;;16.33;;
9424;SDS011;17139;52.140;11.636;2024-01-06T13:59:02;38.80;;;17.03;;
9424;SDS011;17139;52.140;11.636;2024-01-06T14:01:30;40.03;;;14.80;;
9424;SDS011;17139;52.140;11.636;2024-01-06T14:03:58;27.57;;;15.77;;
9424;SDS011;17139;52.140;11.636;2024-01-06T14:06:25;36.33;;;18.30;;
9424;SDS011;17139;52.140;11.636;2024-01-06T14:08:55;19.87;;;11.13;;
9424;SDS011;17139;52.140;11.636;2024-01-06T14:11:22;13.80;;;8.93;;
9424;SDS011;17139;52.140;11.636;2024-01-06T14:13:49;23.50;;;11.93;;
9424;SDS011;17139;52.140;11.636;2024-01-06T14:16:16;30.13;;;12.90;;
9424;SDS011;17139;52.140;11.636;2024-01-06T14:18:45;42.78;;;21.05;;
9424;SDS011;17139;52.140;11.636;2024-01-06T14:21:12;36.43;;;16.93;;
9424;SDS011;17139;52.140;11.636;2024-01-06T14:23:40;33.87;;;17.33;;
9424;SDS011;17139;52.140;11.636;2024-01-06T14:26:07;45.03;;;16.27;;
9424;SDS011;17139;52.140;11.636;2024-01-06T14:28:34;29.87;;;15.67;;
9424;SDS011;17139;52.140;11.636;2024-01-06T14:31:02;24.57;;;12.77;;
9424;SDS011;17139;52.140;11.636;2024-01-06T14:33:29;10.73;;;7.27;;
9424;SDS011;17139;52.140;11.636;2024-01-06T14:35:57;26.77;;;13.63;;
9424;SDS011;17139;52.140;11.636;2024-01-06T14:38:24;29.10;;;10.53;;
9424;SDS011;17139;52.140;11.636;2024-01-06T14:40:51;30.13;;;15.83;;